Hovedside
METAR-TAF:

METAR-TAF

Lufthavner :

Oslo lufthavn (Gardermoen)

Oslo, Norge

breddegrad: 60-12N, lengdegrad: 011-05E, høyde over havet: 208 m

Gjeldene værobservasjon

Denne rapporten ble laget for 24 minutter siden, klokken 15:20 UTC
Vind 4 kt fra Vest-nordvest, skiftende mellom Vest-sørvest og Nord-nordvest
Temperatur 17°C
Luftfuktighet 27%
Trykk 1036 hPa
Sikt 10 km eller mer
ingen skyer under 1500 m og ingen bygeskyer

METAR: ENGM 181520Z 29004KT 250V340 CAVOK 17/M02 Q1036 NOSIG

Tid: 17:44 (15:44 UTC)

Varsel

Varsel gyldig fra 18. klokken 12 UTC til 19. klokken 12 UTC
Vind 5 kt fra Nord-nordøst
Sikt 10 km eller mer
ingen skyer under 1500 m og ingen bygeskyer
Sannsynlighet 40%
fra 18. klokken 12 UTC til 18. klokken 17 UTC
Vind 10 kt fra Sør

TAF: ENGM 1812/1912 02005KT CAVOK PROB40 1812/1817 19010KT

Værobservasjoner og værvarsel for over 4000 flyplasser (METAR- og TAF-rapporter).

Tilgjengelige stasjoner er representert av de røde og gule prikkene på kartet.

Hold musepekeren over prikken for å se navnet på stasjonen.

Klikk så for å se værobservasjoner og -varsler.

For å forandre kartet kan du klikke på den grønne knappen med svart kryss for å zoome inn, på den grønne knappen med strek for å zoome ut, eller på de grønne pilene for å se tilstøtende kart.


METAR-TAF: